KVIH

Details ICAO KVIH
Name ROLLA NATIONAL
Region United States
Timezone America/Chicago (UTC-5.0)
Plans Departing 2
Arriving 2
Stats Elevation 1,148 ft / 350 m (AMSL)
Location 38.127434° -91.769516°
Runways 3
Magnetic Variation 0.362° W
Sunrise 2018-05-24 10:51:14 UTC / 2018-05-24 05:51:14 Local
Sunset 2018-05-25 01:19:31 UTC / 2018-05-24 20:19:31 Local
Advertisement - Login to hide

Runways

ID Width Length Bearing (true) Bearing (mag) Surface Threshold Offset Overrun Length
04 100 ft / 30 m 5,499 ft / 1,676 m 46.44° 46.80° Asphalt 213 ft / 65 m 0 ft / 0 m
13 100 ft / 30 m 5,500 ft / 1,676 m 136.65° 137.01° Asphalt 0 ft / 0 m 0 ft / 0 m
18 75 ft / 23 m 5,005 ft / 1,525 m 180.88° 181.24° Asphalt 0 ft / 0 m 0 ft / 0 m
22 100 ft / 30 m 5,499 ft / 1,676 m 226.45° 226.81° Asphalt 0 ft / 0 m 0 ft / 0 m
31 100 ft / 30 m 5,500 ft / 1,676 m 316.66° 317.02° Asphalt 0 ft / 0 m 0 ft / 0 m
36 75 ft / 23 m 5,005 ft / 1,525 m 0.88° 1.24° Asphalt 0 ft / 0 m 0 ft / 0 m

Map

Weather


0- 5 10 15 20 25 30 35+ Temperature / ° C

Clouds and Precipitation
Forecast for 2018-05-24 12:00 UTC. Updated 3 hours ago

Ground ~20,000 ft ~40,000 ft Winds

METAR

KVIH 241353Z AUTO 14006KT 10SM CLR 24/20 A3017 RMK AO2 SLP206 T02440200

TAF

Not found

Frequencies

Recorded 119.02 MHz ASOS
Unicom 123.00 MHz CTAF/UNICOM
Warning: Do not use this data for real-world aviation or navigation. No guarantee of current accuracy is given.